Flight Track Log - Related Links

Times and Time Zones

All times are in EDT time to prevent confusion due to time zone crossing. See the AAL1441 flight status page for this flight to view local times or setup timezone preferences in your user account.

Time Position Orientation Groundspeed Altitude Reporting Facility
EDT Latitude Longitude Course Direction KTS MPH feet Rate Location/Type
Thu 08:31:58 AM 42.3667 -70.9667 208° Southwest 175 201 800  Level KA90
Thu 08:32:58 AM 42.3667 -70.9000 90° East 221 254 3,000 2,348 Climbing KA90
Thu 08:33:53 AM 42.3500 -70.8167 105° East 278 320 5,300 2,596 Climbing KA90
Thu 08:34:00 AM 42.0440 -71.2313 197° South  Level Estimated
Thu 08:34:42 AM 42.2844 -70.8125 177° South 308 354 7,500  Level Boston Center
Thu 08:35:00 AM 41.9376 -71.3057 199° South  Level Estimated
Thu 08:35:40 AM 42.2008 -70.7978 173° South 322 371 10,500  Level Boston Center
Thu 08:36:00 AM 41.9094 -71.1491 104° East  Level FlightAware Approximate
Thu 08:36:41 AM 42.1111 -70.7861 174° South 339 390 12,600  Level Boston Center
Thu 08:37:00 AM 41.8034 -71.2244 208° Southwest  Level Estimated
Thu 08:37:42 AM 42.0067 -70.7722 174° South 359 413 14,300  Level Boston Center
Thu 08:38:42 AM 41.9003 -70.7611 176° South 379 436 17,000 2,847 Climbing Boston Center
Thu 08:39:40 AM 41.7881 -70.7806 187° South 403 464 19,900 2,746 Climbing Boston Center
Thu 08:40:40 AM 41.6869 -70.8500 207° Southwest 402 463 22,400 2,331 Climbing Boston Center
Thu 08:41:41 AM 41.5900 -70.9383 214° Southwest 409 471 24,600 1,895 Climbing Boston Center
Thu 08:42:53 AM 41.5017 -71.0375 220° Southwest 421 484 26,600 1,850 Climbing Boston Center
Thu 08:43:54 AM 41.4119 -71.1917 232° Southwest 426 490 28,700 1,866 Climbing Boston Center
Thu 08:44:52 AM 41.3339 -71.3178 231° Southwest 442 509 30,300 1,714 Climbing Boston Center
Thu 08:45:53 AM 41.2519 -71.4489 230° Southwest 448 516 32,100 1,918 Climbing Boston Center
Thu 08:46:54 AM 41.1778 -71.5742 232° Southwest 453 521 34,200 1,866 Climbing Boston Center
Thu 08:47:52 AM 41.0975 -71.6853 226° Southwest 436 502 35,800 1,373 Climbing Boston Center
Thu 08:48:52 AM 41.0189 -71.8100 230° Southwest 436 502 36,900 1,100 Climbing Boston Center
Thu 08:49:52 AM 40.9508 -71.9289 233° Southwest 447 514 38,000 545 Climbing Boston Center
Thu 08:50:53 AM 40.8658 -72.0586 229° Southwest 447 514 38,000  Level Boston Center
Thu 08:51:54 AM 40.7872 -72.1853 231° Southwest 447 514 38,000  Level Boston Center
Thu 08:52:51 AM 40.7206 -72.2894 230° Southwest 440 506 38,000  Level Boston Center
Thu 08:53:52 AM 40.6372 -72.4072 227° Southwest 440 506 38,000  Level Boston Center
Thu 08:54:52 AM 40.5622 -72.5303 231° Southwest 440 506 38,000  Level Boston Center
Thu 08:55:54 AM 40.4808 -72.6528 229° Southwest 440 506 38,000  Level Boston Center
Thu 08:56:52 AM 40.4078 -72.7725 231° Southwest 435 501 38,000  Level Boston Center
Thu 08:57:53 AM 40.3322 -72.8919 230° Southwest 435 501 38,000  Level Boston Center
Thu 08:58:54 AM 40.2525 -73.0136 229° Southwest 435 501 38,000  Level Boston Center
Thu 08:59:53 AM 40.1747 -73.1325 229° Southwest 435 501 38,000  Level Boston Center
Thu 09:01:52 AM 40.0133 -73.3539 226° Southwest 441 507 38,000  Level Washington Center
Thu 09:02:53 AM 39.9133 -73.4600 219° Southwest 441 507 38,000  Level Washington Center
Thu 09:03:51 AM 39.8233 -73.5625 221° Southwest 436 502 38,000 -51 Level Washington Center
Thu 09:04:51 AM 39.7333 -73.6622 220° Southwest 436 502 37,900 -49 Descending Washington Center
Thu 09:05:53 AM 39.6433 -73.7617 220° Southwest 431 496 37,900 49 Level Washington Center
Thu 09:06:54 AM 39.5531 -73.8608 220° Southwest 431 496 38,000  Climbing Washington Center
Thu 09:07:52 AM 39.4647 -73.9625 222° Southwest 426 490 37,900  Descending Washington Center
Thu 09:08:52 AM 39.3725 -74.0614 220° Southwest 426 490 38,000 50 Climbing Washington Center
Thu 09:09:52 AM 39.2797 -74.1625 220° Southwest 433 498 38,000  Level Washington Center
Thu 09:10:53 AM 39.1914 -74.2581 220° Southwest 433 498 38,000  Level Washington Center
Thu 09:11:53 AM 39.1006 -74.3558 220° Southwest 428 493 38,000  Level Washington Center
Thu 09:12:51 AM 39.0100 -74.4589 222° Southwest 428 493 38,000  Level Washington Center
Thu 09:13:52 AM 38.9169 -74.5564 219° Southwest 428 493 38,000  Level Washington Center
Thu 09:14:53 AM 38.8242 -74.6536 219° Southwest 428 493 38,000  Level Washington Center
Thu 09:15:51 AM 38.7353 -74.7506 220° Southwest 428 493 38,000  Level Washington Center
Thu 09:16:52 AM 38.6419 -74.8475 219° Southwest 428 493 38,000  Level Washington Center
Thu 09:17:53 AM 38.5531 -74.9492 222° Southwest 428 493 38,000  Level Washington Center
Thu 09:18:51 AM 38.4594 -75.0403 217° Southwest 428 493 38,000  Level Washington Center
Thu 09:19:51 AM 38.3661 -75.1417 220° Southwest 428 493 38,000  Level Washington Center
Thu 09:20:52 AM 38.2769 -75.2425 222° Southwest 428 493 38,000  Level Washington Center
Thu 09:21:53 AM 38.1833 -75.3381 219° Southwest 434 499 38,000 -49 Level Washington Center
Thu 09:22:54 AM 38.0917 -75.4333 219° Southwest 434 499 37,900 -51 Descending Washington Center
Thu 09:23:51 AM 37.9894 -75.5128 211° Southwest 434 499 37,900 50 Level Washington Center
Thu 09:24:53 AM 37.8792 -75.5761 204° Southwest 434 499 38,000  Climbing Washington Center
Thu 09:25:53 AM 37.7706 -75.6417 206° Southwest 434 499 37,900  Descending Washington Center
Thu 09:26:51 AM 37.6600 -75.7047 204° Southwest 434 499 38,000  Climbing Washington Center
Thu 09:27:52 AM 37.5536 -75.7700 206° Southwest 434 499 37,900  Descending Washington Center
Thu 09:28:52 AM 37.4450 -75.8325 205° Southwest 434 499 38,000 50 Climbing Washington Center
Thu 09:29:51 AM 37.3364 -75.8975 205° Southwest 434 499 38,000  Level Washington Center
Thu 09:30:51 AM 37.2278 -75.9597 205° Southwest 434 499 38,000  Level Washington Center
Thu 09:31:52 AM 37.1294 -76.0192 206° Southwest 434 499 38,000  Level Washington Center
Thu 09:32:53 AM 37.0250 -76.0836 206° Southwest 429 494 38,000  Level Washington Center
Thu 09:33:51 AM 36.9081 -76.1425 202° Southwest 442 509 38,000  Level Washington Center
Thu 09:34:52 AM 36.7908 -76.2092 204° Southwest 437 503 38,000  Level Washington Center
Thu 09:35:52 AM 36.6925 -76.2706 207° Southwest 437 503 38,000 -50 Level Washington Center
Thu 09:36:53 AM 36.5794 -76.3214 200° South 437 503 37,900  Descending Washington Center
Thu 09:37:51 AM 36.4644 -76.3694 199° South 437 503 38,000  Climbing Washington Center
Thu 09:38:52 AM 36.3472 -76.4172 198° South 437 503 37,900  Descending Washington Center
Thu 09:39:53 AM 36.2342 -76.4675 200° South 443 510 38,000 50 Climbing Washington Center
Thu 09:40:51 AM 36.1192 -76.5150 198° South 443 510 38,000  Level Washington Center
Thu 09:41:51 AM 36.0039 -76.5625 198° South 443 510 38,000  Level Washington Center
Thu 09:42:53 AM 35.8908 -76.6100 199° South 443 510 38,000 -49 Level Washington Center
Thu 09:43:54 AM 35.7778 -76.6597 200° South 443 510 37,900  Descending Washington Center
Thu 09:44:52 AM 35.6647 -76.7067 199° South 443 510 38,000 51 Climbing Washington Center
Thu 09:45:52 AM 35.5517 -76.7536 199° South 443 510 38,000  Level Washington Center
Thu 09:46:53 AM 35.4406 -76.8006 199° South 438 504 38,000  Level Washington Center
Thu 09:47:51 AM 35.3253 -76.8472 198° South 438 504 38,000  Level Washington Center
Thu 09:48:52 AM 35.2142 -76.8961 200° South 433 498 38,000  Level Washington Center
Thu 09:49:53 AM 35.0864 -76.9475 198° South 428 493 38,000  Level Washington Center
Thu 09:50:53 AM 34.9731 -76.9964 199° South 428 493 38,000  Level Washington Center
Thu 09:51:51 AM 34.8619 -77.0425 199° South 428 493 38,000  Level Washington Center
Thu 09:52:52 AM 34.7467 -77.0911 199° South 428 493 38,000 -49 Level Washington Center
Thu 09:53:53 AM 34.6333 -77.1369 198° South 428 493 37,900 -50 Descending Washington Center
Thu 09:54:51 AM 34.5181 -77.1825 198° South 428 493 37,900 50 Level Washington Center
Thu 09:55:52 AM 34.4069 -77.2308 200° South 428 493 38,000  Climbing Washington Center
Thu 09:58:16 AM 34.1333 -77.3386 198° South 415 478 37,900  Descending Jacksonville Center
Thu 09:59:16 AM 34.0228 -77.3806 197° South 420 483 38,000 50 Climbing Jacksonville Center
Thu 10:00:16 AM 33.9097 -77.4253 198° South 420 483 38,000 -50 Level Jacksonville Center
Thu 10:01:16 AM 33.7972 -77.4722 199° South 425 489 37,900  Descending Jacksonville Center
Thu 10:02:16 AM 33.6844 -77.5167 198° South 425 489 38,000 50 Climbing Jacksonville Center
Thu 10:03:16 AM 33.5756 -77.5581 198° South 425 489 38,000  Level Jacksonville Center
Thu 10:04:16 AM 33.4628 -77.6072 200° South 425 489 38,000  Level Jacksonville Center
Thu 10:05:16 AM 33.3500 -77.6511 198° South 425 489 38,000  Level Jacksonville Center
Thu 10:06:16 AM 33.2369 -77.6975 199° South 425 489 38,000  Level Jacksonville Center
Thu 10:07:16 AM 33.1331 -77.7606 207° Southwest 425 489 38,000  Level Jacksonville Center
Thu 10:08:16 AM 33.0294 -77.8261 208° Southwest 420 483 38,000  Level Jacksonville Center
Thu 10:09:16 AM 32.9233 -77.8864 205° Southwest 420 483 38,000  Level Jacksonville Center
Thu 10:10:16 AM 32.8197 -77.9589 210° Southwest 425 489 38,000 -50 Level Jacksonville Center
Thu 10:11:16 AM 32.7139 -78.0289 209° Southwest 425 489 37,900  Descending Jacksonville Center
Thu 10:12:16 AM 32.6122 -78.0961 209° Southwest 425 489 38,000 50 Climbing Jacksonville Center
Thu 10:13:16 AM 32.5083 -78.1681 210° Southwest 430 495 38,000 -50 Level Jacksonville Center
Thu 10:14:16 AM 32.4044 -78.2375 209° Southwest 430 495 37,900  Descending Jacksonville Center
Thu 10:15:16 AM 32.3006 -78.3092 210° Southwest 430 495 38,000 50 Climbing Jacksonville Center
Thu 10:16:16 AM 32.2008 -78.3753 209° Southwest 430 495 38,000 -50 Level Jacksonville Center
Thu 10:17:16 AM 32.0922 -78.4322 204° Southwest 430 495 37,900 -50 Descending Jacksonville Center
Thu 10:18:16 AM 31.9747 -78.4772 198° South 430 495 37,900 50 Level Jacksonville Center
Thu 10:19:16 AM 31.8547 -78.5097 193° South 435 501 38,000 50 Climbing Jacksonville Center
Thu 10:20:16 AM 31.7408 -78.5372 192° South 435 501 38,000 -50 Level Jacksonville Center
Thu 10:21:16 AM 31.6189 -78.5697 193° South 440 506 37,900  Descending Jacksonville Center
Thu 10:22:16 AM 31.4986 -78.5922 189° South 446 513 38,000 50 Climbing Jacksonville Center
Thu 10:23:16 AM 31.3786 -78.6197 191° South 452 520 38,000  Level Jacksonville Center
Thu 10:24:16 AM 31.2564 -78.6497 192° South 441 507 38,000 -50 Level Jacksonville Center
Thu 10:25:16 AM 31.1361 -78.6769 191° South 446 513 37,900 -50 Descending Jacksonville Center
Thu 10:26:16 AM 31.0114 -78.6947 187° South 446 513 37,900  Level Jacksonville Center
Thu 10:27:16 AM 30.8969 -78.7069 185° South 446 513 37,900 50 Level Jacksonville Center
Thu 10:28:16 AM 30.7783 -78.7122 182° South 446 513 38,000 50 Climbing Jacksonville Center
Thu 10:29:16 AM 30.6550 -78.7081 178° South 446 513 38,000 -63 Level Jacksonville Center
Thu 10:29:51 AM 30.5872 -78.7056 178° South 447 514 37,900 -63 Descending Miami Center
Thu 10:30:51 AM 30.4642 -78.7253 188° South 458 527 37,900 50 Level Miami Center
Thu 10:31:52 AM 30.3450 -78.7447 188° South 453 521 38,000 50 Climbing Miami Center
Thu 10:32:51 AM 30.2239 -78.7667 189° South 441 507 38,000  Level Miami Center
Thu 10:33:51 AM 30.1047 -78.7886 189° South 442 509 38,000  Level Miami Center
Thu 10:34:51 AM 29.9958 -78.8225 195° South 435 501 38,000  Level Miami Center
Thu 10:35:51 AM 29.8686 -78.8319 184° South 440 506 38,000  Level Miami Center
Thu 10:36:51 AM 29.7533 -78.8586 191° South 440 506 38,000  Level Miami Center
Thu 10:37:52 AM 29.6281 -78.8683 184° South 443 510 38,000  Level Miami Center
Thu 10:38:52 AM 29.5028 -78.8828 186° South 443 510 38,000  Level Miami Center
Thu 10:39:51 AM 29.3878 -78.9019 188° South 443 510 38,000  Level Miami Center
Thu 10:40:51 AM 29.2625 -78.9164 186° South 443 510 38,000  Level Miami Center
Thu 10:41:52 AM 29.1433 -78.9331 187° South 443 510 38,000  Level Miami Center
Thu 10:42:51 AM 29.0200 -78.9475 186° South 448 516 38,000  Level Miami Center
Thu 10:43:51 AM 28.8967 -78.9617 186° South 448 516 38,000  Level Miami Center
Thu 10:44:51 AM 28.7775 -78.9808 188° South 448 516 38,000  Level Miami Center
Thu 10:45:51 AM 28.6519 -78.9947 186° South 448 516 38,000  Level Miami Center
Thu 10:46:52 AM 28.5328 -79.0114 187° South 448 516 38,000  Level Miami Center
Thu 10:47:51 AM 28.4136 -79.0306 188° South 443 510 38,000  Level Miami Center
Thu 10:48:51 AM 28.2922 -79.0517 189° South 448 516 38,000 -250 Level Miami Center
Thu 10:49:51 AM 28.1706 -79.0894 195° South 443 510 37,500 -700 Descending Miami Center
Thu 10:50:51 AM 28.0572 -79.1247 195° South 443 510 36,600 -950 Descending Miami Center
Thu 10:51:51 AM 27.9378 -79.1600 195° South 438 504 35,600 -1,000 Descending Miami Center
Thu 10:52:51 AM 27.8181 -79.1975 195° South 438 504 34,600 -1,050 Descending Miami Center
Thu 10:53:51 AM 27.6858 -79.2369 195° South 438 504 33,500 -1,000 Descending Miami Center
Thu 10:54:51 AM 27.5664 -79.2744 196° South 446 513 32,600 -1,250 Descending Miami Center
Thu 10:55:51 AM 27.4425 -79.3117 195° South 451 519 31,000 -2,300 Descending Miami Center
Thu 10:56:51 AM 27.3311 -79.3467 196° South 456 525 28,000 -3,000 Descending Miami Center
Thu 10:57:51 AM 27.2011 -79.3836 194° South 461 531 25,000 -2,900 Descending Miami Center
Thu 10:58:51 AM 27.0647 -79.4250 195° South 474 545 22,200 -1,500 Descending Miami Center
Thu 10:59:51 AM 26.9450 -79.4619 195° South 457 526 22,000 -950 Descending Miami Center
Thu 11:00:51 AM 26.8294 -79.4989 196° South 448 516 20,300 -2,000 Descending Miami Center
Thu 11:01:51 AM 26.7161 -79.5311 194° South 427 491 18,000 -2,200 Descending Miami Center
Thu 11:02:51 AM 26.6233 -79.5686 200° South 409 471 15,900 -2,219 Descending Miami Center
Thu 11:03:04 AM 26.5894 -79.5911 211° Southwest 394 453 15,300 -2,500 Descending Miami Center
Thu 11:03:51 AM 26.5239 -79.6361 212° Southwest 386 444 13,400 -2,291 Descending Miami Center
Thu 11:03:59 AM 26.5111 -79.6542 232° Southwest 366 421 13,200 -500 Descending Miami Center
Thu 11:04:51 AM 26.4767 -79.7114 236° Southwest 350 403 12,900 -484 Descending Miami Center
Thu 11:05:01 AM 26.4614 -79.7344 233° Southwest 293 337 12,700 -1,672 Descending Miami Center
Thu 11:05:52 AM 26.4289 -79.7961 240° Southwest 311 358 11,200 -1,612 Descending Miami Center
Thu 11:06:08 AM 26.4158 -79.8214 240° Southwest 287 330 10,900 -1,322 Descending Miami Center
Thu 11:06:51 AM 26.3839 -79.8578 226° Southwest 290 334 9,900 -885 Descending Miami Center
Thu 11:07:09 AM 26.3519 -79.8778 209° Southwest 290 334 10,000  Climbing Miami Center
Thu 11:07:51 AM 26.3017 -79.8950 197° South 285 328 9,900  Descending Miami Center
Thu 11:08:17 AM 26.2678 -79.9125 205° Southwest 292 336 10,000 100 Climbing Miami Center
Thu 11:08:51 AM 26.2297 -79.9278 200° South 290 334 10,000  Level Miami Center
Thu 11:09:18 AM 26.1942 -79.9431 201° Southwest 288 331 10,000  Level Miami Center
Thu 11:09:51 AM 26.1539 -79.9606 201° Southwest 290 334 10,000 -295 Level Miami Center
Thu 11:10:19 AM 26.1119 -79.9781 201° Southwest 290 334 9,700 -800 Descending Miami Center
Thu 11:10:51 AM 26.0781 -79.9911 199° South 290 334 9,200 -1,393 Descending Miami Center
Thu 11:11:15 AM 26.0444 -80.0042 199° South 288 331 8,400 -1,900 Descending Miami Center
Thu 11:11:51 AM 26.0022 -80.0214 200° South 295 339 7,300 -1,855 Descending Miami Center
Thu 11:12:10 AM 25.9811 -80.0325 205° Southwest 282 325 6,700 -1,900 Descending Miami Center
Thu 11:12:51 AM 25.9306 -80.0519 199° South 290 334 5,400 -1,967 Descending Miami Center
Thu 11:13:11 AM 25.9031 -80.0650 203° Southwest 268 308 4,700 -1,655 Descending Miami Center
Thu 11:14:18 AM 25.8294 -80.0953 200° South 258 297 3,000 -1,070 Descending Miami Center
Thu 11:15:20 AM 25.8075 -80.1456 244° Southwest 165 190 2,400 -732 Descending Miami Center
Thu 11:16:21 AM 25.8019 -80.1961 263° West 145 167 1,500 -787 Descending Miami Center
Thu 11:17:22 AM 25.8031 -80.2378 272° West 140 161 800 -689 Descending Miami Center

Login

Don't have an account? Register now (free) for customized features, flight alerts, and more!